createdAt,value
2018-09-25T00:00:55.449Z,19.77
2018-09-25T00:03:33.246Z,23.22
2018-09-25T00:06:10.891Z,18.07
2018-09-25T00:08:48.380Z,17.67
2018-09-25T00:11:25.898Z,16.63
2018-09-25T00:14:02.984Z,18.43
2018-09-25T00:16:40.941Z,22.43
2018-09-25T00:19:22.686Z,14.33
2018-09-25T00:22:01.975Z,21.43
2018-09-25T00:24:39.409Z,21.60
2018-09-25T00:27:16.789Z,24.53
2018-09-25T00:29:53.871Z,20.83
2018-09-25T00:32:30.901Z,21.47
2018-09-25T00:35:08.491Z,20.97
2018-09-25T00:37:46.253Z,23.53
2018-09-25T00:40:23.665Z,33.53
2018-09-25T00:43:01.411Z,25.30
2018-09-25T00:45:39.338Z,18.47
2018-09-25T00:48:16.675Z,18.70
2018-09-25T00:50:55.335Z,20.93
2018-09-25T00:53:32.406Z,61.37
2018-09-25T00:56:09.737Z,52.67
2018-09-25T00:58:47.896Z,29.60
2018-09-25T01:01:25.854Z,26.12
2018-09-25T01:04:03.526Z,19.50
2018-09-25T01:06:40.498Z,23.60
2018-09-25T01:09:18.017Z,18.87
2018-09-25T01:11:55.400Z,19.47
2018-09-25T01:14:33.876Z,19.13
2018-09-25T01:17:10.972Z,18.73
2018-09-25T01:19:48.429Z,18.93
2018-09-25T01:22:26.038Z,22.13
2018-09-25T01:25:03.650Z,10.80
2018-09-25T01:27:40.867Z,12.63
2018-09-25T01:30:18.586Z,19.77
2018-09-25T01:32:56.066Z,13.40
2018-09-25T01:35:33.350Z,32.97
2018-09-25T01:38:10.732Z,14.60
2018-09-25T01:40:48.052Z,13.03
2018-09-25T01:43:25.900Z,16.77
2018-09-25T01:46:03.272Z,17.70
2018-09-25T01:48:40.837Z,20.23
2018-09-25T01:51:17.836Z,19.83
2018-09-25T01:53:55.128Z,18.80
2018-09-25T01:56:32.559Z,21.27
2018-09-25T01:59:09.813Z,22.83
2018-09-25T02:01:46.890Z,23.33
2018-09-25T02:04:24.272Z,21.83
2018-09-25T02:07:01.644Z,16.97
2018-09-25T02:09:38.823Z,21.17
2018-09-25T02:12:17.103Z,19.17
2018-09-25T02:14:54.143Z,22.30
2018-09-25T02:17:31.316Z,21.33
2018-09-25T02:20:09.363Z,20.93
2018-09-25T02:22:46.649Z,21.83
2018-09-25T02:25:23.962Z,21.25
2018-09-25T02:28:01.747Z,19.40
2018-09-25T02:30:39.090Z,20.00
2018-09-25T02:33:16.199Z,24.00
2018-09-25T02:35:53.766Z,16.60
2018-09-25T02:38:32.185Z,20.17
2018-09-25T02:41:09.773Z,21.93
2018-09-25T02:43:47.485Z,19.27
2018-09-25T02:46:24.785Z,22.70
2018-09-25T02:49:03.715Z,17.07
2018-09-25T02:51:44.500Z,18.50
2018-09-25T02:54:21.886Z,22.07
2018-09-25T02:56:59.149Z,19.90
2018-09-25T02:59:37.436Z,21.80
2018-09-25T03:02:15.035Z,16.90
2018-09-25T03:04:52.102Z,16.63
2018-09-25T03:07:31.422Z,15.27
2018-09-25T03:10:08.821Z,18.57
2018-09-25T03:12:46.059Z,19.57
2018-09-25T03:15:23.124Z,18.00
2018-09-25T03:18:00.806Z,17.27
2018-09-25T03:20:38.576Z,17.37
2018-09-25T03:23:17.234Z,18.33
2018-09-25T03:25:54.832Z,20.03
2018-09-25T03:28:32.753Z,19.17
2018-09-25T03:31:11.140Z,15.90
2018-09-25T03:33:49.152Z,18.83
2018-09-25T03:36:26.522Z,18.63
2018-09-25T03:39:03.650Z,17.30
2018-09-25T03:41:40.932Z,16.67
2018-09-25T03:44:19.253Z,17.73
2018-09-25T03:46:56.946Z,16.50
2018-09-25T03:49:34.586Z,16.13
2018-09-25T03:52:12.226Z,14.60
2018-09-25T03:54:50.906Z,15.20
2018-09-25T03:57:27.859Z,17.00
2018-09-25T04:00:05.199Z,18.07
2018-09-25T04:02:42.326Z,16.17
2018-09-25T04:05:20.334Z,16.63
2018-09-25T04:07:57.663Z,17.23
2018-09-25T04:10:34.958Z,18.43
2018-09-25T04:13:12.357Z,16.13
2018-09-25T04:15:49.591Z,16.57
2018-09-25T04:18:26.757Z,22.07
2018-09-25T04:21:03.848Z,18.87
2018-09-25T04:23:41.477Z,16.60
2018-09-25T04:26:18.712Z,17.80
2018-09-25T04:28:56.218Z,17.10
2018-09-25T04:31:33.522Z,18.83
2018-09-25T04:34:10.788Z,17.73
2018-09-25T04:36:48.079Z,20.32
2018-09-25T04:39:25.438Z,17.07
2018-09-25T04:42:02.688Z,17.17
2018-09-25T04:44:39.997Z,16.77
2018-09-25T04:47:17.291Z,13.53
2018-09-25T04:49:54.726Z,18.20
2018-09-25T04:52:33.407Z,33.10
2018-09-25T04:55:12.611Z,46.53
2018-09-25T04:57:49.778Z,33.37
2018-09-25T05:00:27.620Z,23.27
2018-09-25T05:03:04.862Z,19.33
2018-09-25T05:05:42.915Z,14.37
2018-09-25T05:17:28.737Z,15.33
2018-09-25T05:20:06.265Z,17.03
2018-09-25T05:22:44.087Z,19.43
2018-09-25T05:25:21.215Z,17.30
2018-09-25T05:27:59.528Z,17.40
2018-09-25T05:30:36.989Z,20.33
2018-09-25T05:33:14.065Z,18.33
2018-09-25T05:35:51.429Z,17.93
2018-09-25T05:38:28.784Z,17.83
2018-09-25T05:41:06.201Z,19.23
2018-09-25T05:43:43.646Z,19.30
2018-09-25T05:46:21.006Z,16.90
2018-09-25T05:48:59.361Z,21.60
2018-09-25T05:51:36.807Z,19.70
2018-09-25T05:54:13.912Z,19.83
2018-09-25T05:56:51.441Z,15.30
2018-09-25T05:59:29.375Z,19.40
2018-09-25T06:02:07.282Z,17.10
2018-09-25T06:04:44.642Z,18.20
2018-09-25T06:07:23.111Z,20.87
2018-09-25T06:25:41.654Z,21.97
2018-09-25T06:28:19.136Z,16.13
2018-09-25T06:30:56.501Z,20.30
2018-09-25T06:33:33.808Z,16.90
2018-09-25T06:36:12.486Z,17.17
2018-09-25T06:38:49.935Z,15.87
2018-09-25T06:41:30.704Z,16.13
2018-09-25T06:44:08.103Z,18.90
2018-09-25T06:46:45.379Z,17.70
2018-09-25T06:49:22.461Z,15.47
2018-09-25T06:51:59.887Z,24.37
2018-09-25T06:54:37.405Z,26.23
2018-09-25T06:57:13.672Z,19.63
2018-09-25T06:59:51.275Z,19.90
2018-09-25T07:02:29.065Z,19.47
2018-09-25T07:05:07.247Z,18.87
2018-09-25T07:07:44.905Z,20.37
2018-09-25T07:10:22.732Z,22.40
2018-09-25T07:13:00.316Z,19.90
2018-09-25T07:15:37.942Z,21.40
2018-09-25T07:18:15.568Z,21.20
2018-09-25T07:20:53.647Z,21.80
2018-09-25T07:23:31.276Z,19.27
2018-09-25T07:26:08.994Z,17.70
2018-09-25T07:28:46.372Z,35.70
2018-09-25T07:31:24.104Z,20.25
2018-09-25T07:34:01.462Z,20.53
2018-09-25T07:36:39.190Z,19.93
2018-09-25T07:39:17.284Z,21.77
2018-09-25T07:41:54.661Z,21.10
2018-09-25T07:44:32.208Z,19.30
2018-09-25T07:47:09.531Z,17.87
2018-09-25T07:49:47.301Z,20.60
2018-09-25T07:52:24.762Z,20.13
2018-09-25T07:55:04.200Z,16.30
2018-09-25T07:57:41.549Z,18.40
2018-09-25T08:00:19.055Z,20.13
2018-09-25T08:02:56.217Z,15.17
2018-09-25T08:05:33.645Z,20.93
2018-09-25T08:08:10.752Z,19.53
2018-09-25T08:10:48.123Z,17.60
2018-09-25T08:13:26.026Z,18.27
2018-09-25T08:18:49.560Z,20.10
2018-09-25T08:21:27.395Z,17.37
2018-09-25T08:24:04.111Z,20.13
2018-09-25T08:26:40.657Z,18.77
2018-09-25T08:29:17.566Z,17.17
2018-09-25T08:31:54.481Z,18.07
2018-09-25T08:34:32.473Z,17.90
2018-09-25T08:37:09.412Z,15.73
2018-09-25T08:39:45.969Z,17.52
2018-09-25T08:42:22.568Z,16.40
2018-09-25T08:44:59.119Z,15.67
2018-09-25T08:47:35.650Z,13.87
2018-09-25T08:50:12.358Z,16.90
2018-09-25T08:52:49.225Z,17.43
2018-09-25T08:55:25.779Z,20.23
2018-09-25T08:58:02.571Z,17.47
2018-09-25T09:00:56.725Z,19.60
2018-09-25T09:03:35.792Z,20.20
2018-09-25T09:06:13.280Z,18.20
2018-09-25T09:08:50.482Z,23.53
2018-09-25T09:11:28.053Z,46.70
2018-09-25T09:14:05.298Z,65.57
2018-09-25T09:16:42.424Z,62.20
2018-09-25T09:19:19.582Z,47.57
2018-09-25T09:21:56.654Z,31.53
2018-09-25T09:24:33.972Z,22.40
2018-09-25T09:27:11.050Z,25.27
2018-09-25T09:29:48.522Z,19.23
2018-09-25T09:32:25.749Z,20.23
2018-09-25T09:35:03.142Z,16.73
2018-09-25T09:37:40.786Z,17.67
2018-09-25T09:40:17.899Z,16.40
2018-09-25T09:42:55.148Z,19.83
2018-09-25T09:45:32.455Z,18.33
2018-09-25T09:48:09.774Z,17.37
2018-09-25T09:50:46.828Z,18.13
2018-09-25T09:53:24.201Z,17.30
2018-09-25T09:56:01.399Z,16.47
2018-09-25T09:58:38.744Z,17.17
2018-09-25T10:01:15.814Z,21.50
2018-09-25T10:03:52.940Z,19.47
2018-09-25T10:06:30.256Z,20.67
2018-09-25T10:09:08.219Z,18.80
2018-09-25T10:11:45.433Z,22.10
2018-09-25T10:14:22.680Z,20.40
2018-09-25T10:16:59.773Z,23.67
2018-09-25T10:19:37.073Z,27.17
2018-09-25T10:22:14.352Z,24.30
2018-09-25T10:24:51.414Z,25.00
2018-09-25T10:27:28.859Z,21.63
2018-09-25T10:30:06.133Z,21.80
2018-09-25T10:32:43.437Z,22.23
2018-09-25T10:35:20.494Z,19.10
2018-09-25T10:37:58.032Z,23.23
2018-09-25T10:40:40.136Z,27.07
2018-09-25T10:43:19.042Z,25.50
2018-09-25T10:45:56.133Z,21.20
2018-09-25T10:48:36.639Z,20.83
2018-09-25T10:51:13.845Z,20.10
2018-09-25T10:53:51.131Z,19.77
2018-09-25T10:56:28.364Z,23.73
2018-09-25T10:59:09.224Z,24.23
2018-09-25T11:01:46.355Z,24.07
2018-09-25T11:04:26.936Z,29.27
2018-09-25T11:07:08.821Z,36.20
2018-09-25T11:09:46.090Z,21.00
2018-09-25T11:12:23.289Z,25.97
2018-09-25T11:15:00.527Z,31.30
2018-09-25T11:17:39.539Z,27.43
2018-09-25T11:20:19.934Z,23.20
2018-09-25T11:22:59.291Z,32.07
2018-09-25T11:25:36.858Z,24.50
2018-09-25T11:28:14.988Z,26.40
2018-09-25T11:30:52.407Z,29.15
2018-09-25T11:33:29.673Z,31.23
2018-09-25T11:36:07.409Z,26.73
2018-09-25T11:38:44.651Z,34.07
2018-09-25T11:41:22.094Z,24.63
2018-09-25T11:43:59.439Z,33.63
2018-09-25T11:46:37.215Z,54.90
2018-09-25T11:49:14.466Z,39.07
2018-09-25T11:51:51.753Z,28.00
2018-09-25T11:54:29.313Z,27.43
2018-09-25T11:57:06.478Z,28.93
2018-09-25T11:59:43.588Z,28.73
2018-09-25T12:02:20.653Z,79.43
2018-09-25T12:04:57.856Z,27.87
2018-09-25T12:07:35.745Z,30.97
2018-09-25T12:10:13.401Z,30.83
2018-09-25T12:12:50.669Z,25.80
2018-09-25T12:15:28.113Z,31.07
2018-09-25T12:18:05.312Z,27.20
2018-09-25T12:20:42.687Z,27.47
2018-09-25T12:23:24.030Z,34.47
2018-09-25T12:26:03.453Z,25.17
2018-09-25T12:28:40.538Z,24.27
2018-09-25T12:31:19.253Z,27.20
2018-09-25T12:33:57.010Z,22.67
2018-09-25T12:36:34.837Z,29.60
2018-09-25T12:39:14.288Z,33.20
2018-09-25T12:41:51.610Z,30.93
2018-09-25T12:44:30.949Z,26.47
2018-09-25T12:47:10.696Z,27.93
2018-09-25T12:49:48.768Z,29.83
2018-09-25T12:52:26.759Z,28.40
2018-09-25T12:55:04.346Z,28.30
2018-09-25T12:57:42.726Z,29.63
2018-09-25T13:00:20.483Z,27.00
2018-09-25T13:02:57.785Z,27.13
2018-09-25T13:05:35.869Z,43.90
2018-09-25T13:08:15.082Z,26.73
2018-09-25T13:10:53.090Z,26.00
2018-09-25T13:13:31.034Z,30.20
2018-09-25T13:16:08.751Z,26.67
2018-09-25T13:18:47.667Z,41.63
2018-09-25T13:21:31.771Z,39.48
2018-09-25T13:24:09.141Z,49.70
2018-09-25T13:26:46.751Z,27.50
2018-09-25T13:29:27.100Z,26.05
2018-09-25T13:32:04.804Z,28.00
2018-09-25T13:34:55.332Z,35.53
2018-09-25T13:37:38.984Z,23.40
2018-09-25T13:40:21.648Z,20.90
2018-09-25T13:43:04.898Z,21.53
2018-09-25T13:45:48.657Z,30.93
2018-09-25T13:48:30.754Z,24.13
2018-09-25T13:51:14.763Z,28.17
2018-09-25T13:54:00.822Z,34.20
2018-09-25T13:56:43.949Z,19.13
2018-09-25T13:59:27.823Z,21.60
2018-09-25T14:02:05.396Z,24.72
2018-09-25T14:04:47.637Z,22.97
2018-09-25T14:07:29.787Z,26.27
2018-09-25T14:10:15.126Z,22.80
2018-09-25T14:12:57.597Z,33.30
2018-09-25T14:15:40.137Z,22.10
2018-09-25T14:18:22.849Z,22.87
2018-09-25T14:21:06.272Z,19.33
2018-09-25T14:23:47.094Z,40.13
2018-09-25T14:26:28.427Z,19.60
2018-09-25T14:29:15.095Z,24.52
2018-09-25T14:31:56.009Z,14.13
2018-09-25T14:34:39.051Z,13.23
2018-09-25T14:37:18.897Z,19.65
2018-09-25T14:40:01.020Z,14.33
2018-09-25T14:42:41.520Z,14.77
2018-09-25T14:45:24.298Z,21.37
2018-09-25T14:48:04.064Z,15.17
2018-09-25T14:50:45.225Z,16.93
2018-09-25T14:53:27.944Z,23.30
2018-09-25T14:56:07.553Z,15.33
2018-09-25T14:58:50.261Z,17.73
2018-09-25T15:01:31.954Z,16.60
2018-09-25T15:04:09.783Z,13.00
2018-09-25T15:06:47.604Z,18.80
2018-09-25T15:09:33.087Z,14.23
2018-09-25T15:12:11.767Z,13.53
2018-09-25T15:14:52.557Z,20.87
2018-09-25T15:17:30.917Z,14.47
2018-09-25T15:20:09.574Z,27.07
2018-09-25T15:22:47.259Z,20.17
2018-09-25T15:25:24.708Z,11.53
2018-09-25T15:28:05.270Z,17.63
2018-09-25T15:30:46.899Z,10.25
2018-09-25T15:33:25.599Z,18.63
2018-09-25T15:36:05.669Z,11.13
2018-09-25T15:38:46.354Z,15.60
2018-09-25T15:41:26.985Z,15.20
2018-09-25T15:44:13.521Z,16.23
2018-09-25T15:46:56.957Z,14.93
2018-09-25T15:49:39.500Z,17.60
2018-09-25T15:52:22.567Z,9.20
2018-09-25T15:55:03.084Z,12.30
2018-09-25T15:57:42.847Z,14.00
2018-09-25T16:00:23.052Z,10.60
2018-09-25T16:03:07.922Z,16.27
2018-09-25T16:05:49.920Z,10.53
2018-09-25T16:08:32.986Z,23.93
2018-09-25T16:11:14.689Z,11.00
2018-09-25T16:13:58.147Z,13.30
2018-09-25T16:16:46.417Z,10.53
2018-09-25T16:19:30.594Z,16.70
2018-09-25T16:22:09.074Z,18.37
2018-09-25T16:24:46.915Z,13.30
2018-09-25T16:27:27.837Z,16.07
2018-09-25T16:30:05.546Z,13.80
2018-09-25T16:32:43.556Z,24.15
2018-09-25T16:35:21.999Z,10.33
2018-09-25T16:37:59.974Z,12.05
2018-09-25T16:40:37.853Z,16.70
2018-09-25T16:43:20.466Z,11.50
2018-09-25T16:45:58.220Z,16.03
2018-09-25T16:48:38.523Z,15.97
2018-09-25T16:51:17.420Z,8.00
2018-09-25T16:53:55.477Z,16.13
2018-09-25T16:56:37.896Z,14.95
2018-09-25T16:59:19.139Z,12.97
2018-09-25T17:01:56.908Z,19.10
2018-09-25T17:04:35.016Z,15.13
2018-09-25T17:07:14.636Z,10.63
2018-09-25T17:09:56.277Z,13.67
2018-09-25T17:12:35.196Z,15.30
2018-09-25T17:15:21.310Z,14.30
2018-09-25T17:18:00.657Z,13.83
2018-09-25T17:20:38.545Z,13.37
2018-09-25T17:23:18.449Z,12.03
2018-09-25T17:25:58.589Z,11.93
2018-09-25T17:28:36.559Z,12.75
2018-09-25T17:31:23.517Z,10.53
2018-09-25T17:34:05.266Z,11.40
2018-09-25T17:36:43.919Z,13.10
2018-09-25T17:39:22.063Z,13.60
2018-09-25T17:42:05.866Z,12.00
2018-09-25T17:44:43.719Z,12.87
2018-09-25T17:47:20.907Z,16.07
2018-09-25T17:49:59.040Z,14.60
2018-09-25T17:52:36.480Z,19.20
2018-09-25T17:55:20.491Z,12.63
2018-09-25T17:57:59.603Z,14.03
2018-09-25T18:00:37.638Z,32.53
2018-09-25T18:03:17.948Z,13.87
2018-09-25T18:05:55.991Z,15.10
2018-09-25T18:08:33.219Z,11.80
2018-09-25T18:11:10.292Z,13.57
2018-09-25T18:21:05.776Z,15.77
2018-09-25T18:23:42.986Z,13.83
2018-09-25T18:26:21.382Z,11.53
2018-09-25T18:28:58.899Z,17.80
2018-09-25T18:31:39.256Z,14.03
2018-09-25T18:34:17.507Z,22.57
2018-09-25T18:36:55.012Z,13.30
2018-09-25T18:39:32.665Z,13.73
2018-09-25T18:42:09.754Z,12.33
2018-09-25T18:44:47.480Z,12.03
2018-09-25T18:47:25.718Z,11.87
2018-09-25T18:50:06.397Z,11.70
2018-09-25T18:52:58.497Z,9.37
2018-09-25T18:55:39.898Z,16.20
2018-09-25T18:58:21.739Z,15.23
2018-09-25T19:01:00.463Z,15.70
2018-09-25T19:03:41.174Z,17.10
2018-09-25T19:06:18.877Z,11.30
2018-09-25T19:11:53.581Z,10.35
2018-09-25T19:14:34.123Z,13.50
2018-09-25T19:17:12.849Z,15.20
2018-09-25T19:19:54.126Z,14.87
2018-09-25T19:22:47.443Z,11.27
2018-09-25T19:25:28.440Z,15.63
2018-09-25T19:28:06.411Z,12.97
2018-09-25T19:30:44.477Z,13.80
2018-09-25T19:33:22.896Z,9.40
2018-09-25T19:36:03.994Z,16.43
2018-09-25T19:38:44.804Z,11.70
2018-09-25T19:41:24.692Z,13.03
2018-09-25T19:44:08.900Z,8.97
2018-09-25T19:46:56.041Z,11.43
2018-09-25T19:49:34.330Z,11.73
2018-09-25T19:52:12.292Z,19.40
2018-09-25T19:54:57.403Z,12.60
2018-09-25T19:57:40.289Z,16.20
2018-09-25T20:00:23.159Z,10.70
2018-09-25T20:03:02.034Z,15.63
2018-09-25T20:05:44.780Z,12.37
2018-09-25T20:08:27.161Z,12.27
2018-09-25T20:11:07.503Z,12.37
2018-09-25T20:13:46.687Z,15.43
2018-09-25T20:16:28.286Z,20.17
2018-09-25T20:19:08.129Z,17.40
2018-09-25T20:21:51.814Z,13.73
2018-09-25T20:24:31.963Z,19.30
2018-09-25T20:27:15.033Z,9.40
2018-09-25T20:38:57.870Z,13.23
2018-09-25T20:41:36.897Z,14.07
2018-09-25T20:44:15.261Z,18.70
2018-09-25T20:46:55.404Z,13.53
2018-09-25T20:49:34.696Z,11.00
2018-09-25T20:52:14.924Z,9.47
2018-09-25T20:54:56.526Z,13.20
2018-09-25T20:57:35.022Z,12.50
2018-09-25T21:00:22.768Z,10.00
2018-09-25T21:03:06.181Z,13.07
2018-09-25T21:05:48.032Z,13.73
2018-09-25T21:08:27.008Z,17.47
2018-09-25T21:11:05.530Z,14.30
2018-09-25T21:13:43.591Z,9.67
2018-09-25T21:16:24.033Z,17.83
2018-09-25T21:19:09.905Z,13.53
2018-09-25T21:21:52.708Z,13.10
2018-09-25T21:24:37.370Z,13.27
2018-09-25T21:27:15.392Z,28.10
2018-09-25T21:32:53.100Z,12.07
2018-09-25T21:35:33.826Z,10.97
2018-09-25T21:38:15.025Z,14.67
2018-09-25T21:40:58.289Z,11.33
2018-09-25T21:43:36.789Z,14.13
2018-09-25T21:46:28.193Z,12.10
2018-09-25T21:49:11.631Z,17.93
2018-09-25T21:51:51.768Z,21.87
2018-09-25T21:54:33.757Z,17.00
2018-09-25T21:57:20.103Z,12.90
2018-09-25T22:00:00.553Z,16.57
2018-09-25T22:02:49.935Z,16.97
2018-09-25T22:05:41.343Z,17.83
2018-09-25T22:08:50.788Z,16.77
2018-09-25T22:11:30.201Z,13.43
2018-09-25T22:14:37.201Z,15.47
2018-09-25T22:20:07.684Z,17.77
2018-09-25T22:22:56.803Z,13.60
2018-09-25T22:25:39.112Z,13.80
2018-09-25T22:28:16.302Z,16.67
2018-09-25T22:30:53.332Z,17.00
2018-09-25T22:33:33.193Z,12.90
2018-09-25T22:36:12.270Z,18.43
2018-09-25T22:38:51.253Z,10.17
2018-09-25T22:41:28.901Z,14.13
2018-09-25T22:44:06.142Z,19.50
2018-09-25T22:46:43.625Z,14.83
2018-09-25T22:49:21.069Z,24.20
2018-09-25T22:51:58.366Z,10.97
2018-09-25T22:54:40.621Z,13.57
2018-09-25T22:57:17.837Z,12.33
2018-09-25T22:59:55.008Z,13.93
2018-09-25T23:02:32.875Z,15.83
2018-09-25T23:05:10.915Z,19.90
2018-09-25T23:07:47.914Z,22.20
2018-09-25T23:10:24.855Z,24.50
2018-09-25T23:13:02.420Z,14.90
2018-09-25T23:15:42.546Z,13.40
2018-09-25T23:18:34.121Z,16.00
2018-09-25T23:21:13.871Z,18.17
2018-09-25T23:23:50.700Z,24.93
2018-09-25T23:26:27.920Z,20.80
2018-09-25T23:29:05.037Z,13.60
2018-09-25T23:31:42.077Z,15.77
2018-09-25T23:34:19.682Z,29.73
2018-09-25T23:36:57.836Z,20.63
2018-09-25T23:39:35.274Z,20.40
2018-09-25T23:42:13.154Z,19.93
2018-09-25T23:46:54.103Z,15.32
2018-09-25T23:49:38.154Z,18.43
2018-09-25T23:52:18.040Z,17.60
2018-09-25T23:55:09.869Z,20.00
2018-09-25T23:57:48.541Z,22.97
